createdAt,value
2023-09-29T00:00:18.631Z,18.16
2023-09-29T00:02:47.813Z,18.12
2023-09-29T00:05:18.862Z,18.13
2023-09-29T00:07:47.464Z,18.14
2023-09-29T00:10:18.401Z,18.06
2023-09-29T00:12:47.646Z,18.09
2023-09-29T00:15:16.339Z,18.07
2023-09-29T00:17:44.436Z,18.07
2023-09-29T00:20:18.139Z,17.95
2023-09-29T00:22:46.139Z,17.93
2023-09-29T00:25:14.116Z,17.87
2023-09-29T00:27:43.413Z,17.84
2023-09-29T00:30:13.131Z,17.87
2023-09-29T00:32:45.569Z,17.86
2023-09-29T00:35:22.556Z,17.80
2023-09-29T00:37:50.516Z,17.85
2023-09-29T00:40:18.716Z,17.73
2023-09-29T00:42:50.025Z,17.77
2023-09-29T00:45:20.872Z,17.72
2023-09-29T00:47:50.930Z,17.75
2023-09-29T00:50:21.202Z,17.72
2023-09-29T00:52:52.229Z,17.73
2023-09-29T00:55:23.697Z,17.65
2023-09-29T00:57:53.074Z,17.62
2023-09-29T01:00:31.203Z,17.65
2023-09-29T01:02:59.680Z,17.70
2023-09-29T01:05:28.073Z,17.62
2023-09-29T01:07:56.307Z,17.61
2023-09-29T01:10:25.255Z,17.54
2023-09-29T01:12:55.205Z,17.53
2023-09-29T01:15:23.267Z,17.48
2023-09-29T01:17:51.299Z,17.40
2023-09-29T01:20:26.353Z,17.42
2023-09-29T01:22:54.478Z,17.38
2023-09-29T01:25:23.930Z,17.38
2023-09-29T01:27:53.205Z,17.35
2023-09-29T01:30:21.288Z,17.34
2023-09-29T01:32:50.412Z,17.29
2023-09-29T01:35:19.155Z,17.26
2023-09-29T01:37:47.754Z,17.20
2023-09-29T01:40:15.883Z,17.19
2023-09-29T01:42:47.128Z,17.18
2023-09-29T01:45:15.219Z,17.17
2023-09-29T01:47:44.580Z,17.21
2023-09-29T01:50:15.938Z,17.15
2023-09-29T01:52:44.157Z,17.18
2023-09-29T01:55:15.694Z,17.06
2023-09-29T01:57:45.620Z,17.07
2023-09-29T02:00:16.353Z,17.08
2023-09-29T02:02:45.950Z,17.07
2023-09-29T02:05:14.398Z,17.08
2023-09-29T02:07:42.356Z,17.05
2023-09-29T02:10:10.909Z,17.06
2023-09-29T02:12:48.188Z,17.09
2023-09-29T02:15:19.202Z,17.14
2023-09-29T02:17:49.237Z,17.15
2023-09-29T02:20:21.482Z,17.14
2023-09-29T02:22:50.181Z,17.12
2023-09-29T02:25:18.584Z,17.14
2023-09-29T02:27:48.011Z,17.01
2023-09-29T02:30:16.087Z,17.04
2023-09-29T02:32:45.975Z,17.03
2023-09-29T02:35:13.920Z,17.00
2023-09-29T02:37:42.418Z,17.12
2023-09-29T02:40:13.203Z,17.05
2023-09-29T02:42:41.645Z,17.02
2023-09-29T02:45:10.620Z,17.00
2023-09-29T02:47:40.436Z,16.88
2023-09-29T02:50:11.320Z,16.85
2023-09-29T02:52:40.314Z,16.79
2023-09-29T02:55:13.761Z,16.83
2023-09-29T02:57:43.674Z,16.73
2023-09-29T03:00:16.821Z,16.72
2023-09-29T03:02:45.026Z,16.74
2023-09-29T03:05:15.503Z,16.75
2023-09-29T03:07:44.562Z,16.69
2023-09-29T03:10:14.548Z,16.66
2023-09-29T03:12:43.856Z,16.62
2023-09-29T03:15:14.895Z,16.64
2023-09-29T03:17:42.961Z,16.69
2023-09-29T03:20:12.417Z,16.62
2023-09-29T03:22:42.118Z,16.67
2023-09-29T03:25:11.715Z,16.73
2023-09-29T03:27:41.068Z,16.65
2023-09-29T03:30:11.060Z,16.66
2023-09-29T03:32:39.286Z,16.69
2023-09-29T03:35:10.121Z,16.60
2023-09-29T03:37:40.840Z,16.53
2023-09-29T03:40:12.499Z,16.55
2023-09-29T03:42:42.770Z,16.52
2023-09-29T03:45:12.311Z,16.51
2023-09-29T03:47:40.669Z,16.53
2023-09-29T03:50:10.105Z,16.57
2023-09-29T03:52:38.272Z,16.54
2023-09-29T03:55:07.283Z,16.43
2023-09-29T03:57:38.766Z,16.43
2023-09-29T04:00:13.190Z,16.38
2023-09-29T04:02:42.626Z,16.41
2023-09-29T04:05:11.477Z,16.42
2023-09-29T04:07:41.205Z,16.42
2023-09-29T04:10:10.863Z,16.31
2023-09-29T04:12:41.770Z,16.28
2023-09-29T04:15:11.054Z,16.22
2023-09-29T04:17:39.719Z,16.26
2023-09-29T04:20:09.023Z,16.24
2023-09-29T04:22:37.049Z,16.24
2023-09-29T04:25:06.035Z,16.27
2023-09-29T04:27:34.032Z,16.26
2023-09-29T04:30:04.870Z,16.24
2023-09-29T04:32:33.122Z,16.29
2023-09-29T04:35:01.173Z,16.26
2023-09-29T04:37:29.131Z,16.30
2023-09-29T04:39:57.856Z,16.27
2023-09-29T04:42:25.768Z,16.26
2023-09-29T04:44:53.663Z,16.26
2023-09-29T04:47:23.638Z,16.27
2023-09-29T04:49:51.594Z,16.25
2023-09-29T04:52:19.703Z,16.24
2023-09-29T04:54:47.721Z,16.23
2023-09-29T04:57:15.671Z,16.25
2023-09-29T04:59:44.074Z,16.25
2023-09-29T05:02:12.059Z,16.17
2023-09-29T05:04:41.611Z,16.09
2023-09-29T05:07:09.576Z,16.09
2023-09-29T05:09:37.826Z,16.11
2023-09-29T05:12:06.851Z,16.13
2023-09-29T05:14:34.852Z,16.12
2023-09-29T05:17:02.809Z,16.11
2023-09-29T05:19:30.751Z,16.11
2023-09-29T05:22:00.717Z,16.41
2023-09-29T05:24:28.692Z,16.35
2023-09-29T05:26:56.683Z,16.34
2023-09-29T05:29:24.610Z,16.20
2023-09-29T05:31:52.576Z,16.12
2023-09-29T05:34:20.555Z,16.30
2023-09-29T05:36:48.527Z,16.42
2023-09-29T05:39:18.533Z,16.43
2023-09-29T05:41:46.422Z,16.43
2023-09-29T05:44:14.361Z,16.37
2023-09-29T05:46:42.368Z,16.45
2023-09-29T05:49:11.026Z,16.45
2023-09-29T05:51:39.048Z,16.59
2023-09-29T05:54:07.218Z,16.73
2023-09-29T05:56:36.589Z,16.79
2023-09-29T05:59:05.137Z,16.89
2023-09-29T06:01:33.038Z,16.91
2023-09-29T06:04:01.223Z,17.20
2023-09-29T06:06:29.495Z,17.23
2023-09-29T06:08:57.481Z,17.55
2023-09-29T06:11:25.397Z,17.76
2023-09-29T06:13:54.768Z,17.72
2023-09-29T06:16:23.722Z,17.72
2023-09-29T06:18:52.227Z,18.06
2023-09-29T06:21:20.222Z,18.16
2023-09-29T06:23:48.094Z,18.24
2023-09-29T06:26:16.037Z,18.50
2023-09-29T06:28:44.048Z,18.26
2023-09-29T06:31:13.394Z,18.30
2023-09-29T06:33:41.540Z,18.33
2023-09-29T06:36:09.641Z,18.75
2023-09-29T06:38:37.672Z,18.82
2023-09-29T06:41:05.631Z,18.63
2023-09-29T06:43:33.586Z,18.73
2023-09-29T06:46:02.430Z,18.81
2023-09-29T06:48:32.010Z,19.04
2023-09-29T06:51:01.675Z,19.19
2023-09-29T06:53:32.260Z,19.24
2023-09-29T06:56:00.709Z,19.64
2023-09-29T06:58:28.945Z,20.10
2023-09-29T07:01:01.265Z,20.89
2023-09-29T07:03:32.658Z,21.22
2023-09-29T07:06:02.143Z,22.05
2023-09-29T07:08:30.662Z,23.33
2023-09-29T07:10:59.033Z,24.02
2023-09-29T07:13:27.056Z,25.03
2023-09-29T07:15:54.908Z,25.54
2023-09-29T07:18:23.222Z,26.00
2023-09-29T07:20:54.765Z,26.86
2023-09-29T07:23:24.083Z,26.00
2023-09-29T07:25:52.882Z,25.44
2023-09-29T07:28:21.924Z,24.69
2023-09-29T07:30:50.245Z,24.62
2023-09-29T07:33:18.339Z,24.74
2023-09-29T07:35:47.138Z,25.08
2023-09-29T07:38:18.870Z,25.27
2023-09-29T07:40:47.280Z,26.53
2023-09-29T07:43:15.177Z,26.83
2023-09-29T07:45:44.001Z,26.83
2023-09-29T07:48:13.038Z,26.93
2023-09-29T07:50:41.149Z,27.39
2023-09-29T07:53:10.073Z,27.84
2023-09-29T07:55:39.889Z,27.25
2023-09-29T07:58:08.198Z,26.78
2023-09-29T08:00:36.074Z,26.91
2023-09-29T08:03:04.118Z,25.78
2023-09-29T08:05:32.449Z,25.71
2023-09-29T08:08:00.466Z,25.89
2023-09-29T08:10:28.414Z,26.32
2023-09-29T08:12:57.792Z,26.57
2023-09-29T08:15:26.005Z,26.22
2023-09-29T08:17:54.212Z,25.67
2023-09-29T08:20:22.170Z,25.46
2023-09-29T08:22:51.416Z,24.64
2023-09-29T08:25:20.608Z,24.73
2023-09-29T08:27:48.907Z,23.59
2023-09-29T08:30:18.846Z,23.69
2023-09-29T08:32:47.047Z,23.57
2023-09-29T08:35:16.127Z,23.03
2023-09-29T08:37:44.917Z,23.36
2023-09-29T08:40:14.889Z,23.14
2023-09-29T08:42:46.596Z,22.88
2023-09-29T08:45:14.691Z,22.85
2023-09-29T08:47:44.061Z,22.73
2023-09-29T08:50:13.190Z,22.88
2023-09-29T08:52:45.825Z,22.92
2023-09-29T08:55:14.968Z,22.97
2023-09-29T08:57:44.796Z,23.19
2023-09-29T09:00:15.183Z,22.96
2023-09-29T09:02:45.836Z,22.65
2023-09-29T09:05:16.016Z,22.78
2023-09-29T09:07:44.810Z,23.02
2023-09-29T09:10:26.964Z,23.00
2023-09-29T09:12:59.561Z,22.74
2023-09-29T09:15:27.744Z,22.84
2023-09-29T09:17:57.578Z,23.20
2023-09-29T09:20:26.149Z,23.11
2023-09-29T09:23:01.102Z,23.27
2023-09-29T09:25:33.046Z,22.92
2023-09-29T09:28:01.337Z,23.04
2023-09-29T09:30:29.351Z,22.84
2023-09-29T09:32:58.831Z,22.75
2023-09-29T09:35:28.775Z,22.63
2023-09-29T09:37:56.833Z,22.52
2023-09-29T09:40:25.878Z,22.65
2023-09-29T09:42:54.482Z,22.67
2023-09-29T09:45:26.881Z,22.65
2023-09-29T09:48:00.306Z,22.60
2023-09-29T09:50:30.254Z,22.89
2023-09-29T09:53:01.005Z,22.88
2023-09-29T09:55:35.441Z,22.96
2023-09-29T09:58:07.716Z,22.86
2023-09-29T10:00:35.778Z,22.92
2023-09-29T10:03:12.593Z,22.90
2023-09-29T10:05:43.141Z,22.96
2023-09-29T10:08:13.889Z,23.00
2023-09-29T10:10:43.018Z,22.95
2023-09-29T10:13:13.661Z,22.94
2023-09-29T10:15:41.678Z,23.25
2023-09-29T10:18:19.008Z,23.75
2023-09-29T10:20:50.670Z,23.89
2023-09-29T10:23:19.303Z,23.83
2023-09-29T10:25:58.661Z,23.65
2023-09-29T10:28:32.696Z,23.31
2023-09-29T10:31:08.254Z,23.56
2023-09-29T10:33:53.617Z,23.72
2023-09-29T10:36:24.447Z,23.57
2023-09-29T10:38:55.559Z,23.42
2023-09-29T10:41:34.923Z,23.36
2023-09-29T10:44:05.499Z,23.59
2023-09-29T10:46:33.777Z,23.70
2023-09-29T10:49:03.293Z,23.76
2023-09-29T10:51:33.067Z,24.03
2023-09-29T10:54:08.196Z,24.32
2023-09-29T10:56:37.987Z,24.51
2023-09-29T10:59:07.140Z,24.41
2023-09-29T11:01:35.670Z,24.54
2023-09-29T11:04:06.417Z,25.21
2023-09-29T11:06:42.177Z,25.67
2023-09-29T11:09:11.483Z,25.40
2023-09-29T11:11:40.584Z,25.16
2023-09-29T11:14:08.766Z,25.23
2023-09-29T11:16:38.097Z,25.49
2023-09-29T11:19:13.139Z,25.22
2023-09-29T11:21:42.340Z,24.93
2023-09-29T11:24:12.075Z,24.68
2023-09-29T11:26:41.954Z,24.22
2023-09-29T11:29:10.640Z,24.15
2023-09-29T11:31:40.872Z,23.78
2023-09-29T11:34:10.816Z,23.85
2023-09-29T11:36:38.778Z,23.68
2023-09-29T11:39:08.974Z,23.59
2023-09-29T11:41:37.157Z,23.76
2023-09-29T11:44:05.498Z,23.69
2023-09-29T11:46:33.558Z,23.82
2023-09-29T11:49:01.594Z,23.71
2023-09-29T11:51:30.938Z,23.79
2023-09-29T11:53:59.593Z,23.81
2023-09-29T11:56:27.507Z,23.88
2023-09-29T11:58:56.066Z,23.85
2023-09-29T12:01:24.136Z,23.93
2023-09-29T12:03:52.703Z,23.92
2023-09-29T12:06:20.664Z,23.92
2023-09-29T12:08:50.060Z,23.93
2023-09-29T12:11:20.696Z,24.08
2023-09-29T12:13:49.994Z,23.91
2023-09-29T12:16:18.146Z,24.17
2023-09-29T12:18:46.405Z,24.05
2023-09-29T12:21:14.626Z,23.98
2023-09-29T12:23:43.056Z,24.10
2023-09-29T12:26:12.525Z,23.85
2023-09-29T12:28:40.615Z,23.83
2023-09-29T12:31:15.955Z,23.78
2023-09-29T12:33:46.208Z,23.71
2023-09-29T12:36:14.790Z,23.64
2023-09-29T12:38:44.245Z,23.34
2023-09-29T12:41:14.871Z,23.30
2023-09-29T12:43:44.063Z,23.27
2023-09-29T12:46:12.004Z,23.40
2023-09-29T12:48:40.183Z,23.38
2023-09-29T12:51:08.222Z,23.31
2023-09-29T12:53:36.520Z,23.10
2023-09-29T12:56:05.492Z,22.91
2023-09-29T12:58:35.286Z,22.95
2023-09-29T13:01:03.678Z,22.99
2023-09-29T13:03:31.820Z,22.90
2023-09-29T13:06:01.480Z,22.78
2023-09-29T13:08:29.585Z,22.69
2023-09-29T13:10:57.772Z,22.55
2023-09-29T13:13:26.610Z,22.46
2023-09-29T13:15:55.955Z,22.36
2023-09-29T13:18:24.683Z,22.47
2023-09-29T13:20:52.851Z,22.40
2023-09-29T13:23:22.775Z,22.52
2023-09-29T13:25:52.714Z,22.48
2023-09-29T13:28:20.863Z,22.27
2023-09-29T13:30:54.663Z,22.19
2023-09-29T13:33:28.235Z,22.17
2023-09-29T13:35:57.655Z,22.29
2023-09-29T13:38:25.594Z,22.22
2023-09-29T13:40:54.549Z,22.18
2023-09-29T13:43:23.169Z,22.22
2023-09-29T13:45:51.235Z,22.30
2023-09-29T13:48:23.267Z,22.35
2023-09-29T13:50:53.417Z,22.50
2023-09-29T13:53:21.452Z,22.61
2023-09-29T13:55:50.571Z,22.70
2023-09-29T13:58:18.527Z,22.79
2023-09-29T14:00:50.150Z,22.78
2023-09-29T14:03:20.718Z,22.84
2023-09-29T14:05:48.913Z,22.78
2023-09-29T14:08:18.416Z,22.89
2023-09-29T14:10:46.384Z,22.82
2023-09-29T14:13:14.376Z,22.88
2023-09-29T14:15:42.281Z,22.89
2023-09-29T14:18:10.257Z,23.05
2023-09-29T14:20:38.524Z,23.08
2023-09-29T14:23:08.238Z,23.20
2023-09-29T14:25:37.650Z,22.97
2023-09-29T14:28:07.221Z,22.98
2023-09-29T14:30:37.475Z,23.01
2023-09-29T14:33:05.942Z,23.05
2023-09-29T14:35:46.548Z,22.86
2023-09-29T14:38:17.141Z,22.79
2023-09-29T14:40:46.519Z,22.73
2023-09-29T14:43:14.757Z,22.79
2023-09-29T14:45:42.711Z,22.70
2023-09-29T14:48:11.386Z,22.65
2023-09-29T14:50:42.299Z,22.63
2023-09-29T14:53:10.251Z,22.60
2023-09-29T14:55:39.823Z,22.60
2023-09-29T14:58:09.751Z,22.64
2023-09-29T15:00:38.030Z,22.56
2023-09-29T15:03:06.597Z,22.40
2023-09-29T15:05:36.856Z,22.44
2023-09-29T15:08:05.644Z,22.43
2023-09-29T15:10:33.669Z,22.36
2023-09-29T15:13:01.969Z,22.35
2023-09-29T15:15:31.443Z,22.33
2023-09-29T15:18:00.856Z,22.45
2023-09-29T15:20:29.335Z,22.39
2023-09-29T15:22:57.302Z,22.31
2023-09-29T15:25:25.388Z,22.34
2023-09-29T15:27:53.461Z,22.44
2023-09-29T15:30:21.635Z,22.37
2023-09-29T15:32:51.125Z,22.36
2023-09-29T15:35:19.149Z,22.33
2023-09-29T15:37:47.510Z,22.41
2023-09-29T15:40:15.448Z,22.35
2023-09-29T15:42:43.506Z,22.38
2023-09-29T15:45:12.646Z,22.37
2023-09-29T15:47:40.592Z,22.27
2023-09-29T15:50:10.734Z,22.23
2023-09-29T15:52:38.925Z,22.21
2023-09-29T15:55:07.546Z,22.29
2023-09-29T15:57:35.725Z,22.25
2023-09-29T16:00:04.601Z,22.32
2023-09-29T16:02:37.518Z,22.34
2023-09-29T16:05:05.857Z,22.41
2023-09-29T16:07:35.130Z,22.27
2023-09-29T16:10:03.183Z,22.27
2023-09-29T16:12:31.453Z,22.19
2023-09-29T16:14:59.548Z,22.13
2023-09-29T16:17:27.667Z,22.13
2023-09-29T16:19:56.214Z,21.98
2023-09-29T16:22:24.238Z,21.88
2023-09-29T16:24:53.521Z,21.86
2023-09-29T16:27:22.966Z,21.89
2023-09-29T16:29:53.050Z,21.84
2023-09-29T16:32:31.911Z,21.87
2023-09-29T16:35:02.056Z,21.81
2023-09-29T16:37:30.372Z,21.83
2023-09-29T16:40:03.605Z,21.82
2023-09-29T16:42:34.349Z,21.72
2023-09-29T16:45:02.333Z,21.67
2023-09-29T16:47:30.537Z,21.65
2023-09-29T16:49:58.732Z,21.64
2023-09-29T16:52:26.664Z,21.72
2023-09-29T16:54:54.601Z,21.64
2023-09-29T16:57:25.072Z,21.63
2023-09-29T16:59:53.319Z,21.57
2023-09-29T17:02:21.354Z,21.59
2023-09-29T17:04:50.377Z,21.53
2023-09-29T17:07:18.567Z,21.54
2023-09-29T17:09:47.561Z,21.47
2023-09-29T17:12:15.433Z,21.52
2023-09-29T17:14:44.732Z,21.46
2023-09-29T17:17:12.605Z,21.44
2023-09-29T17:19:40.814Z,21.42
2023-09-29T17:22:10.065Z,21.30
2023-09-29T17:24:38.037Z,21.29
2023-09-29T17:27:06.058Z,21.25
2023-09-29T17:29:34.620Z,21.22
2023-09-29T17:32:04.451Z,21.17
2023-09-29T17:34:32.625Z,21.15
2023-09-29T17:37:00.833Z,21.15
2023-09-29T17:39:28.801Z,21.12
2023-09-29T17:41:56.806Z,21.13
2023-09-29T17:44:24.649Z,21.11
2023-09-29T17:46:52.579Z,21.08
2023-09-29T17:49:22.065Z,21.04
2023-09-29T17:51:50.073Z,21.02
2023-09-29T17:54:18.109Z,21.07
2023-09-29T17:56:46.513Z,21.06
2023-09-29T17:59:14.450Z,21.07
2023-09-29T18:01:42.466Z,21.07
2023-09-29T18:04:10.609Z,21.08
2023-09-29T18:06:40.799Z,21.08
2023-09-29T18:09:10.035Z,21.10
2023-09-29T18:11:38.485Z,21.04
2023-09-29T18:14:06.473Z,21.04
2023-09-29T18:16:34.637Z,21.03
2023-09-29T18:19:05.614Z,21.02
2023-09-29T18:21:34.445Z,20.97
2023-09-29T18:24:06.585Z,20.98
2023-09-29T18:26:34.870Z,21.02
2023-09-29T18:29:02.798Z,20.99
2023-09-29T18:31:30.699Z,20.98
2023-09-29T18:33:58.709Z,20.97
2023-09-29T18:36:27.001Z,21.04
2023-09-29T18:38:55.370Z,21.01
2023-09-29T18:41:24.950Z,20.96
2023-09-29T18:43:53.763Z,20.95
2023-09-29T18:46:22.542Z,21.00
2023-09-29T18:48:50.714Z,20.94
2023-09-29T18:51:19.719Z,20.90
2023-09-29T18:53:47.935Z,20.90
2023-09-29T18:56:19.026Z,20.86
2023-09-29T18:58:48.398Z,20.92
2023-09-29T19:01:16.364Z,20.91
2023-09-29T19:03:44.401Z,20.84
2023-09-29T19:06:12.879Z,20.82
2023-09-29T19:08:41.102Z,20.83
2023-09-29T19:11:18.740Z,20.85
2023-09-29T19:13:48.444Z,21.02
2023-09-29T19:16:16.941Z,21.04
2023-09-29T19:18:45.603Z,21.01
2023-09-29T19:21:19.687Z,21.20
2023-09-29T19:23:52.226Z,21.13
2023-09-29T19:26:20.145Z,21.08
2023-09-29T19:28:49.709Z,21.23
2023-09-29T19:31:17.921Z,21.25
2023-09-29T19:33:46.052Z,21.17
2023-09-29T19:36:14.025Z,21.24
2023-09-29T19:38:42.032Z,21.34
2023-09-29T19:41:13.332Z,21.41
2023-09-29T19:43:41.364Z,21.50
2023-09-29T19:46:11.622Z,21.84
2023-09-29T19:48:40.012Z,22.02
2023-09-29T19:51:14.057Z,22.13
2023-09-29T19:53:42.954Z,22.22
2023-09-29T19:56:13.054Z,22.30
2023-09-29T19:58:44.328Z,22.33
2023-09-29T20:01:14.257Z,22.29
2023-09-29T20:03:42.932Z,22.35
2023-09-29T20:06:10.954Z,22.29
2023-09-29T20:08:39.342Z,22.26
2023-09-29T20:11:10.473Z,22.20
2023-09-29T20:13:39.059Z,22.12
2023-09-29T20:16:07.124Z,22.18
2023-09-29T20:18:36.417Z,22.25
2023-09-29T20:21:04.774Z,22.25
2023-09-29T20:23:32.944Z,22.14
2023-09-29T20:26:00.876Z,22.13
2023-09-29T20:28:28.982Z,22.09
2023-09-29T20:30:57.337Z,22.09
2023-09-29T20:33:25.346Z,22.11
2023-09-29T20:35:54.728Z,22.00
2023-09-29T20:38:22.949Z,22.01
2023-09-29T20:40:50.954Z,21.98
2023-09-29T20:43:19.034Z,21.94
2023-09-29T20:45:47.758Z,21.89
2023-09-29T20:48:16.315Z,21.91
2023-09-29T20:50:44.444Z,21.87
2023-09-29T20:53:14.775Z,21.85
2023-09-29T20:55:43.364Z,21.80
2023-09-29T20:58:11.650Z,21.78
2023-09-29T21:00:39.588Z,21.80
2023-09-29T21:03:10.678Z,21.79
2023-09-29T21:05:38.822Z,21.81
2023-09-29T21:08:07.152Z,21.83
2023-09-29T21:10:37.524Z,21.75
2023-09-29T21:13:05.574Z,21.63
2023-09-29T21:15:33.602Z,21.62
2023-09-29T21:18:01.595Z,21.49
2023-09-29T21:20:29.670Z,21.42
2023-09-29T21:22:57.599Z,21.45
2023-09-29T21:25:25.702Z,21.42
2023-09-29T21:27:55.599Z,21.29
2023-09-29T21:30:23.557Z,21.39
2023-09-29T21:32:52.348Z,21.30
2023-09-29T21:35:20.371Z,21.24
2023-09-29T21:37:48.385Z,21.16
2023-09-29T21:40:16.569Z,21.11
2023-09-29T21:42:44.588Z,21.07
2023-09-29T21:45:14.348Z,20.95
2023-09-29T21:47:44.907Z,20.95
2023-09-29T21:50:12.911Z,20.82
2023-09-29T21:52:40.988Z,20.94
2023-09-29T21:55:11.138Z,20.71
2023-09-29T21:57:39.434Z,20.67
2023-09-29T22:00:20.565Z,20.57
2023-09-29T22:02:51.110Z,20.60
2023-09-29T22:05:21.137Z,20.48
2023-09-29T22:07:50.194Z,20.38
2023-09-29T22:10:18.419Z,20.45
2023-09-29T22:12:46.959Z,20.41
2023-09-29T22:15:16.632Z,20.42
2023-09-29T22:17:45.033Z,20.34
2023-09-29T22:20:15.027Z,20.28
2023-09-29T22:22:43.189Z,20.15
2023-09-29T22:25:11.815Z,20.12
2023-09-29T22:27:39.825Z,20.12
2023-09-29T22:30:08.999Z,19.97
2023-09-29T22:32:37.085Z,20.09
2023-09-29T22:35:07.447Z,19.85
2023-09-29T22:37:36.842Z,19.87
2023-09-29T22:40:05.216Z,19.73
2023-09-29T22:42:33.147Z,19.60
2023-09-29T22:45:06.067Z,19.49
2023-09-29T22:47:34.028Z,19.32
2023-09-29T22:50:04.286Z,19.37
2023-09-29T22:52:32.566Z,19.44
2023-09-29T22:55:01.952Z,19.26
2023-09-29T22:57:31.212Z,19.20
2023-09-29T23:00:00.862Z,19.08
2023-09-29T23:02:29.258Z,18.86
2023-09-29T23:04:57.363Z,18.84
2023-09-29T23:07:25.322Z,18.74
2023-09-29T23:09:53.563Z,18.82
2023-09-29T23:12:22.916Z,18.76
2023-09-29T23:14:51.740Z,18.50
2023-09-29T23:17:20.358Z,18.50
2023-09-29T23:19:48.800Z,18.45
2023-09-29T23:22:17.109Z,18.24
2023-09-29T23:24:45.192Z,18.14
2023-09-29T23:27:13.037Z,17.80
2023-09-29T23:29:42.723Z,17.63
2023-09-29T23:32:10.602Z,17.45
2023-09-29T23:34:39.898Z,17.23
2023-09-29T23:37:07.862Z,17.15
2023-09-29T23:39:36.203Z,17.02
2023-09-29T23:42:04.247Z,16.98
2023-09-29T23:44:34.123Z,16.97
2023-09-29T23:47:03.470Z,16.93
2023-09-29T23:49:31.516Z,16.90
2023-09-29T23:51:59.593Z,16.95
2023-09-29T23:54:28.531Z,16.76
2023-09-29T23:56:56.598Z,16.84
2023-09-29T23:59:24.559Z,16.83
